sensor_id;sensor_type;location;lat;lon;timestamp;P1;durP1;ratioP1;P2;durP2;ratioP2
17091;SDS011;8661;45.700;4.880;2022-08-05T00:01:42;2.40;;;1.50;;
17091;SDS011;8661;45.700;4.880;2022-08-05T00:04:11;1.57;;;1.40;;
17091;SDS011;8661;45.700;4.880;2022-08-05T00:06:38;2.60;;;1.60;;
17091;SDS011;8661;45.700;4.880;2022-08-05T00:09:05;3.07;;;1.63;;
17091;SDS011;8661;45.700;4.880;2022-08-05T00:11:32;3.73;;;1.60;;
17091;SDS011;8661;45.700;4.880;2022-08-05T00:13:59;2.07;;;1.60;;
17091;SDS011;8661;45.700;4.880;2022-08-05T00:16:26;1.37;;;1.27;;
17091;SDS011;8661;45.700;4.880;2022-08-05T00:18:53;4.23;;;1.50;;
17091;SDS011;8661;45.700;4.880;2022-08-05T00:21:21;2.90;;;1.60;;
17091;SDS011;8661;45.700;4.880;2022-08-05T00:23:48;2.73;;;1.40;;
17091;SDS011;8661;45.700;4.880;2022-08-05T00:26:15;1.60;;;1.43;;
17091;SDS011;8661;45.700;4.880;2022-08-05T00:28:43;2.63;;;1.70;;
17091;SDS011;8661;45.700;4.880;2022-08-05T00:31:11;1.63;;;1.40;;
17091;SDS011;8661;45.700;4.880;2022-08-05T00:33:38;4.17;;;1.67;;
17091;SDS011;8661;45.700;4.880;2022-08-05T00:36:05;1.80;;;1.70;;
17091;SDS011;8661;45.700;4.880;2022-08-05T00:38:33;2.73;;;1.40;;
17091;SDS011;8661;45.700;4.880;2022-08-05T00:41:00;3.07;;;1.60;;
17091;SDS011;8661;45.700;4.880;2022-08-05T00:43:30;1.70;;;1.60;;
17091;SDS011;8661;45.700;4.880;2022-08-05T00:45:57;5.47;;;1.90;;
17091;SDS011;8661;45.700;4.880;2022-08-05T00:48:24;3.30;;;1.70;;
17091;SDS011;8661;45.700;4.880;2022-08-05T00:50:51;4.27;;;1.77;;
17091;SDS011;8661;45.700;4.880;2022-08-05T00:53:18;3.63;;;1.33;;
17091;SDS011;8661;45.700;4.880;2022-08-05T00:55:49;4.63;;;1.60;;
17091;SDS011;8661;45.700;4.880;2022-08-05T00:58:16;2.03;;;1.67;;
17091;SDS011;8661;45.700;4.880;2022-08-05T01:00:44;1.53;;;1.43;;
17091;SDS011;8661;45.700;4.880;2022-08-05T01:03:12;1.83;;;1.60;;
17091;SDS011;8661;45.700;4.880;2022-08-05T01:05:39;1.90;;;1.70;;
17091;SDS011;8661;45.700;4.880;2022-08-05T01:08:06;2.07;;;1.50;;
17091;SDS011;8661;45.700;4.880;2022-08-05T01:10:35;4.47;;;1.70;;
17091;SDS011;8661;45.700;4.880;2022-08-05T01:13:15;2.37;;;1.83;;
17091;SDS011;8661;45.700;4.880;2022-08-05T01:15:49;2.97;;;1.50;;
17091;SDS011;8661;45.700;4.880;2022-08-05T01:18:22;2.83;;;1.90;;
17091;SDS011;8661;45.700;4.880;2022-08-05T01:20:57;2.20;;;1.93;;
17091;SDS011;8661;45.700;4.880;2022-08-05T01:26:31;2.70;;;2.10;;
17091;SDS011;8661;45.700;4.880;2022-08-05T01:29:07;3.87;;;1.73;;
17091;SDS011;8661;45.700;4.880;2022-08-05T01:31:40;2.93;;;1.80;;
17091;SDS011;8661;45.700;4.880;2022-08-05T01:34:11;2.23;;;1.87;;
17091;SDS011;8661;45.700;4.880;2022-08-05T01:36:42;2.63;;;1.97;;
17091;SDS011;8661;45.700;4.880;2022-08-05T01:39:12;4.53;;;1.93;;
17091;SDS011;8661;45.700;4.880;2022-08-05T01:41:41;3.63;;;2.07;;
17091;SDS011;8661;45.700;4.880;2022-08-05T01:44:11;3.07;;;2.00;;
17091;SDS011;8661;45.700;4.880;2022-08-05T01:46:39;4.30;;;2.20;;
17091;SDS011;8661;45.700;4.880;2022-08-05T01:49:08;4.60;;;2.20;;
17091;SDS011;8661;45.700;4.880;2022-08-05T01:51:38;2.87;;;1.87;;
17091;SDS011;8661;45.700;4.880;2022-08-05T01:54:06;3.90;;;2.20;;
17091;SDS011;8661;45.700;4.880;2022-08-05T01:56:36;2.60;;;2.20;;
17091;SDS011;8661;45.700;4.880;2022-08-05T01:59:07;2.67;;;2.40;;
17091;SDS011;8661;45.700;4.880;2022-08-05T02:01:39;5.87;;;2.40;;
17091;SDS011;8661;45.700;4.880;2022-08-05T02:04:08;3.50;;;2.60;;
17091;SDS011;8661;45.700;4.880;2022-08-05T02:06:36;2.93;;;2.40;;
17091;SDS011;8661;45.700;4.880;2022-08-05T02:09:03;4.13;;;2.37;;
17091;SDS011;8661;45.700;4.880;2022-08-05T02:11:31;2.97;;;2.30;;
17091;SDS011;8661;45.700;4.880;2022-08-05T02:14:08;2.63;;;2.43;;
17091;SDS011;8661;45.700;4.880;2022-08-05T02:16:41;3.63;;;2.60;;
17091;SDS011;8661;45.700;4.880;2022-08-05T02:19:18;3.13;;;2.60;;
17091;SDS011;8661;45.700;4.880;2022-08-05T02:21:53;2.93;;;2.57;;
17091;SDS011;8661;45.700;4.880;2022-08-05T02:24:26;3.97;;;2.33;;
17091;SDS011;8661;45.700;4.880;2022-08-05T02:27:03;3.50;;;2.50;;
17091;SDS011;8661;45.700;4.880;2022-08-05T02:29:33;4.23;;;2.60;;
17091;SDS011;8661;45.700;4.880;2022-08-05T02:32:03;5.43;;;2.90;;
17091;SDS011;8661;45.700;4.880;2022-08-05T02:34:33;3.47;;;2.70;;
17091;SDS011;8661;45.700;4.880;2022-08-05T02:37:02;3.77;;;2.47;;
17091;SDS011;8661;45.700;4.880;2022-08-05T02:39:34;2.80;;;2.60;;
17091;SDS011;8661;45.700;4.880;2022-08-05T02:42:03;3.90;;;2.80;;
17091;SDS011;8661;45.700;4.880;2022-08-05T02:44:33;4.43;;;2.80;;
17091;SDS011;8661;45.700;4.880;2022-08-05T02:47:03;2.90;;;2.57;;
17091;SDS011;8661;45.700;4.880;2022-08-05T02:49:33;3.90;;;2.67;;
17091;SDS011;8661;45.700;4.880;2022-08-05T02:52:02;4.30;;;2.90;;
17091;SDS011;8661;45.700;4.880;2022-08-05T02:54:31;3.30;;;2.73;;
17091;SDS011;8661;45.700;4.880;2022-08-05T02:56:59;4.17;;;3.50;;
17091;SDS011;8661;45.700;4.880;2022-08-05T02:59:27;5.43;;;3.03;;
17091;SDS011;8661;45.700;4.880;2022-08-05T03:01:55;4.73;;;2.63;;
17091;SDS011;8661;45.700;4.880;2022-08-05T03:04:26;4.23;;;2.97;;
17091;SDS011;8661;45.700;4.880;2022-08-05T03:06:53;4.50;;;2.80;;
17091;SDS011;8661;45.700;4.880;2022-08-05T03:09:21;7.43;;;2.80;;
17091;SDS011;8661;45.700;4.880;2022-08-05T03:11:48;6.03;;;2.90;;
17091;SDS011;8661;45.700;4.880;2022-08-05T03:14:15;4.67;;;2.90;;
17091;SDS011;8661;45.700;4.880;2022-08-05T03:16:42;4.17;;;2.80;;
17091;SDS011;8661;45.700;4.880;2022-08-05T03:19:09;4.73;;;3.00;;
17091;SDS011;8661;45.700;4.880;2022-08-05T03:21:37;3.67;;;3.00;;
17091;SDS011;8661;45.700;4.880;2022-08-05T03:24:05;3.27;;;2.70;;
17091;SDS011;8661;45.700;4.880;2022-08-05T03:26:33;4.50;;;2.87;;
17091;SDS011;8661;45.700;4.880;2022-08-05T03:29:01;4.53;;;2.87;;
17091;SDS011;8661;45.700;4.880;2022-08-05T03:31:28;9.30;;;3.07;;
17091;SDS011;8661;45.700;4.880;2022-08-05T03:33:56;4.03;;;2.70;;
17091;SDS011;8661;45.700;4.880;2022-08-05T03:36:23;4.03;;;3.60;;
17091;SDS011;8661;45.700;4.880;2022-08-05T03:38:53;3.43;;;3.13;;
17091;SDS011;8661;45.700;4.880;2022-08-05T03:41:20;3.53;;;3.10;;
17091;SDS011;8661;45.700;4.880;2022-08-05T03:43:47;6.97;;;3.53;;
17091;SDS011;8661;45.700;4.880;2022-08-05T03:46:13;5.27;;;3.67;;
17091;SDS011;8661;45.700;4.880;2022-08-05T03:48:40;3.87;;;3.13;;
17091;SDS011;8661;45.700;4.880;2022-08-05T03:51:10;5.00;;;2.87;;
17091;SDS011;8661;45.700;4.880;2022-08-05T03:53:42;3.87;;;2.90;;
17091;SDS011;8661;45.700;4.880;2022-08-05T03:56:16;6.63;;;3.43;;
17091;SDS011;8661;45.700;4.880;2022-08-05T03:58:54;4.43;;;3.40;;
17091;SDS011;8661;45.700;4.880;2022-08-05T04:01:25;4.80;;;3.27;;
17091;SDS011;8661;45.700;4.880;2022-08-05T04:03:55;3.50;;;2.93;;
17091;SDS011;8661;45.700;4.880;2022-08-05T04:06:24;4.53;;;3.17;;
17091;SDS011;8661;45.700;4.880;2022-08-05T04:08:52;3.70;;;3.40;;
17091;SDS011;8661;45.700;4.880;2022-08-05T04:11:21;3.97;;;3.13;;
17091;SDS011;8661;45.700;4.880;2022-08-05T04:13:49;6.23;;;3.27;;
17091;SDS011;8661;45.700;4.880;2022-08-05T04:16:17;3.70;;;3.20;;
17091;SDS011;8661;45.700;4.880;2022-08-05T04:18:46;5.67;;;3.07;;
17091;SDS011;8661;45.700;4.880;2022-08-05T04:21:12;5.63;;;3.40;;
17091;SDS011;8661;45.700;4.880;2022-08-05T04:23:39;5.23;;;3.40;;
17091;SDS011;8661;45.700;4.880;2022-08-05T04:26:07;6.87;;;3.47;;
17091;SDS011;8661;45.700;4.880;2022-08-05T04:28:36;6.97;;;3.50;;
17091;SDS011;8661;45.700;4.880;2022-08-05T04:31:02;3.90;;;3.53;;
17091;SDS011;8661;45.700;4.880;2022-08-05T04:33:29;4.53;;;3.70;;
17091;SDS011;8661;45.700;4.880;2022-08-05T04:35:56;3.87;;;3.20;;
17091;SDS011;8661;45.700;4.880;2022-08-05T04:38:23;5.03;;;3.67;;
17091;SDS011;8661;45.700;4.880;2022-08-05T04:40:50;6.97;;;3.43;;
17091;SDS011;8661;45.700;4.880;2022-08-05T04:43:17;3.60;;;3.30;;
17091;SDS011;8661;45.700;4.880;2022-08-05T04:45:46;3.97;;;3.10;;
17091;SDS011;8661;45.700;4.880;2022-08-05T04:48:13;6.17;;;3.60;;
17091;SDS011;8661;45.700;4.880;2022-08-05T04:50:41;5.83;;;3.77;;
17091;SDS011;8661;45.700;4.880;2022-08-05T04:53:09;6.33;;;3.77;;
17091;SDS011;8661;45.700;4.880;2022-08-05T04:55:38;5.33;;;3.70;;
17091;SDS011;8661;45.700;4.880;2022-08-05T04:59:36;5.33;;;3.90;;
17091;SDS011;8661;45.700;4.880;2022-08-05T05:01:43;3.60;;;3.30;;
17091;SDS011;8661;45.700;4.880;2022-08-05T05:04:16;5.57;;;3.47;;
17091;SDS011;8661;45.700;4.880;2022-08-05T05:06:43;6.27;;;3.43;;
17091;SDS011;8661;45.700;4.880;2022-08-05T05:09:10;9.17;;;3.80;;
17091;SDS011;8661;45.700;4.880;2022-08-05T05:11:37;7.17;;;3.93;;
17091;SDS011;8661;45.700;4.880;2022-08-05T05:14:04;5.70;;;4.07;;
17091;SDS011;8661;45.700;4.880;2022-08-05T05:16:31;6.10;;;4.07;;
17091;SDS011;8661;45.700;4.880;2022-08-05T05:18:59;6.10;;;4.20;;
17091;SDS011;8661;45.700;4.880;2022-08-05T05:21:26;5.00;;;3.80;;
17091;SDS011;8661;45.700;4.880;2022-08-05T05:23:53;9.50;;;4.03;;
17091;SDS011;8661;45.700;4.880;2022-08-05T05:26:20;4.80;;;3.40;;
17091;SDS011;8661;45.700;4.880;2022-08-05T05:28:47;6.40;;;3.77;;
17091;SDS011;8661;45.700;4.880;2022-08-05T05:31:14;3.50;;;3.20;;
17091;SDS011;8661;45.700;4.880;2022-08-05T05:33:41;7.20;;;3.97;;
17091;SDS011;8661;45.700;4.880;2022-08-05T05:36:09;9.10;;;3.73;;
17091;SDS011;8661;45.700;4.880;2022-08-05T05:38:36;7.53;;;3.57;;
17091;SDS011;8661;45.700;4.880;2022-08-05T05:41:03;4.43;;;3.50;;
17091;SDS011;8661;45.700;4.880;2022-08-05T05:43:30;8.33;;;4.07;;
17091;SDS011;8661;45.700;4.880;2022-08-05T05:45:57;4.93;;;3.83;;
17091;SDS011;8661;45.700;4.880;2022-08-05T05:48:24;4.53;;;3.40;;
17091;SDS011;8661;45.700;4.880;2022-08-05T05:50:51;4.33;;;3.70;;
17091;SDS011;8661;45.700;4.880;2022-08-05T05:53:19;4.60;;;3.67;;
17091;SDS011;8661;45.700;4.880;2022-08-05T05:55:46;5.93;;;3.90;;
17091;SDS011;8661;45.700;4.880;2022-08-05T05:58:13;4.27;;;3.60;;
17091;SDS011;8661;45.700;4.880;2022-08-05T06:00:40;8.87;;;3.70;;
17091;SDS011;8661;45.700;4.880;2022-08-05T06:03:07;7.00;;;3.70;;
17091;SDS011;8661;45.700;4.880;2022-08-05T06:05:34;10.13;;;4.17;;
17091;SDS011;8661;45.700;4.880;2022-08-05T06:08:01;6.50;;;3.57;;
17091;SDS011;8661;45.700;4.880;2022-08-05T06:10:29;5.43;;;3.73;;
17091;SDS011;8661;45.700;4.880;2022-08-05T06:12:57;8.40;;;3.40;;
17091;SDS011;8661;45.700;4.880;2022-08-05T06:15:25;4.30;;;3.50;;
17091;SDS011;8661;45.700;4.880;2022-08-05T06:17:52;5.50;;;3.93;;
17091;SDS011;8661;45.700;4.880;2022-08-05T06:20:19;5.23;;;3.80;;
17091;SDS011;8661;45.700;4.880;2022-08-05T06:22:46;4.57;;;3.67;;
17091;SDS011;8661;45.700;4.880;2022-08-05T06:25:12;4.57;;;3.43;;
17091;SDS011;8661;45.700;4.880;2022-08-05T06:27:41;7.03;;;3.60;;
17091;SDS011;8661;45.700;4.880;2022-08-05T06:30:08;5.57;;;3.50;;
17091;SDS011;8661;45.700;4.880;2022-08-05T06:32:39;7.00;;;3.73;;
17091;SDS011;8661;45.700;4.880;2022-08-05T06:35:07;3.60;;;3.30;;
17091;SDS011;8661;45.700;4.880;2022-08-05T06:37:34;6.70;;;3.80;;
17091;SDS011;8661;45.700;4.880;2022-08-05T06:40:01;5.27;;;3.57;;
17091;SDS011;8661;45.700;4.880;2022-08-05T06:42:28;4.83;;;3.73;;
17091;SDS011;8661;45.700;4.880;2022-08-05T06:44:57;4.47;;;3.40;;
17091;SDS011;8661;45.700;4.880;2022-08-05T06:47:23;6.70;;;3.40;;
17091;SDS011;8661;45.700;4.880;2022-08-05T06:49:50;5.97;;;3.50;;
17091;SDS011;8661;45.700;4.880;2022-08-05T06:52:17;6.33;;;3.83;;
17091;SDS011;8661;45.700;4.880;2022-08-05T06:54:44;5.80;;;3.40;;
17091;SDS011;8661;45.700;4.880;2022-08-05T06:57:11;4.47;;;3.47;;
17091;SDS011;8661;45.700;4.880;2022-08-05T06:59:39;7.33;;;3.40;;
17091;SDS011;8661;45.700;4.880;2022-08-05T07:02:07;6.40;;;3.90;;
17091;SDS011;8661;45.700;4.880;2022-08-05T07:04:34;5.17;;;3.50;;
17091;SDS011;8661;45.700;4.880;2022-08-05T07:07:01;5.73;;;3.80;;
17091;SDS011;8661;45.700;4.880;2022-08-05T07:09:28;5.33;;;3.30;;
17091;SDS011;8661;45.700;4.880;2022-08-05T07:11:55;5.03;;;3.37;;
17091;SDS011;8661;45.700;4.880;2022-08-05T07:14:22;5.03;;;3.37;;
17091;SDS011;8661;45.700;4.880;2022-08-05T07:17:08;5.63;;;3.40;;
17091;SDS011;8661;45.700;4.880;2022-08-05T07:19:35;6.37;;;3.13;;
17091;SDS011;8661;45.700;4.880;2022-08-05T07:22:02;6.77;;;3.60;;
17091;SDS011;8661;45.700;4.880;2022-08-05T07:24:29;11.33;;;4.00;;
17091;SDS011;8661;45.700;4.880;2022-08-05T07:26:56;3.60;;;3.17;;
17091;SDS011;8661;45.700;4.880;2022-08-05T07:29:23;4.33;;;3.17;;
17091;SDS011;8661;45.700;4.880;2022-08-05T07:31:50;4.33;;;3.17;;
17091;SDS011;8661;45.700;4.880;2022-08-05T07:34:18;3.83;;;3.13;;
17091;SDS011;8661;45.700;4.880;2022-08-05T07:36:46;4.93;;;3.23;;
17091;SDS011;8661;45.700;4.880;2022-08-05T07:39:12;10.40;;;5.60;;
17091;SDS011;8661;45.700;4.880;2022-08-05T07:41:39;4.43;;;3.20;;
17091;SDS011;8661;45.700;4.880;2022-08-05T07:44:07;6.80;;;3.43;;
17091;SDS011;8661;45.700;4.880;2022-08-05T07:46:34;6.30;;;3.20;;
17091;SDS011;8661;45.700;4.880;2022-08-05T07:49:01;3.38;;;2.88;;
17091;SDS011;8661;45.700;4.880;2022-08-05T07:51:30;11.05;;;3.38;;
17091;SDS011;8661;45.700;4.880;2022-08-05T07:53:58;7.43;;;3.28;;
17091;SDS011;8661;45.700;4.880;2022-08-05T07:56:25;3.72;;;3.10;;
17091;SDS011;8661;45.700;4.880;2022-08-05T07:58:52;5.03;;;3.10;;
17091;SDS011;8661;45.700;4.880;2022-08-05T08:01:20;5.43;;;2.92;;
17091;SDS011;8661;45.700;4.880;2022-08-05T08:03:50;4.15;;;2.95;;
17091;SDS011;8661;45.700;4.880;2022-08-05T08:06:16;3.65;;;2.90;;
17091;SDS011;8661;45.700;4.880;2022-08-05T08:08:45;3.85;;;3.15;;
17091;SDS011;8661;45.700;4.880;2022-08-05T08:11:12;8.15;;;3.78;;
17091;SDS011;8661;45.700;4.880;2022-08-05T08:13:39;6.00;;;3.38;;
17091;SDS011;8661;45.700;4.880;2022-08-05T08:16:06;5.57;;;3.63;;
17091;SDS011;8661;45.700;4.880;2022-08-05T08:18:33;7.38;;;3.50;;
17091;SDS011;8661;45.700;4.880;2022-08-05T08:21:00;4.30;;;3.35;;
17091;SDS011;8661;45.700;4.880;2022-08-05T08:23:27;5.63;;;3.53;;
17091;SDS011;8661;45.700;4.880;2022-08-05T08:25:55;5.45;;;3.33;;
17091;SDS011;8661;45.700;4.880;2022-08-05T08:28:22;15.27;;;3.30;;
17091;SDS011;8661;45.700;4.880;2022-08-05T08:30:49;10.02;;;3.53;;
17091;SDS011;8661;45.700;4.880;2022-08-05T08:33:16;6.20;;;3.40;;
17091;SDS011;8661;45.700;4.880;2022-08-05T08:35:43;7.25;;;3.20;;
17091;SDS011;8661;45.700;4.880;2022-08-05T08:38:10;9.25;;;3.38;;
17091;SDS011;8661;45.700;4.880;2022-08-05T08:40:40;3.80;;;2.72;;
17091;SDS011;8661;45.700;4.880;2022-08-05T08:43:10;7.25;;;3.25;;
17091;SDS011;8661;45.700;4.880;2022-08-05T08:45:38;7.07;;;3.40;;
17091;SDS011;8661;45.700;4.880;2022-08-05T08:48:06;5.80;;;3.03;;
17091;SDS011;8661;45.700;4.880;2022-08-05T08:50:36;6.03;;;3.70;;
17091;SDS011;8661;45.700;4.880;2022-08-05T08:53:06;8.13;;;3.25;;
17091;SDS011;8661;45.700;4.880;2022-08-05T08:55:35;11.20;;;3.53;;
17091;SDS011;8661;45.700;4.880;2022-08-05T08:58:03;6.63;;;3.10;;
17091;SDS011;8661;45.700;4.880;2022-08-05T09:00:31;7.85;;;3.20;;
17091;SDS011;8661;45.700;4.880;2022-08-05T09:02:59;4.78;;;3.10;;
17091;SDS011;8661;45.700;4.880;2022-08-05T09:05:27;5.22;;;3.15;;
17091;SDS011;8661;45.700;4.880;2022-08-05T09:07:54;6.15;;;3.22;;
17091;SDS011;8661;45.700;4.880;2022-08-05T09:10:21;6.30;;;2.97;;
17091;SDS011;8661;45.700;4.880;2022-08-05T09:12:48;7.32;;;3.67;;
17091;SDS011;8661;45.700;4.880;2022-08-05T09:15:15;7.90;;;3.50;;
17091;SDS011;8661;45.700;4.880;2022-08-05T09:17:43;5.65;;;3.20;;
17091;SDS011;8661;45.700;4.880;2022-08-05T09:20:11;5.00;;;3.08;;
17091;SDS011;8661;45.700;4.880;2022-08-05T09:25:32;4.13;;;2.95;;
17091;SDS011;8661;45.700;4.880;2022-08-05T09:30:52;4.75;;;3.33;;
17091;SDS011;8661;45.700;4.880;2022-08-05T09:33:22;8.65;;;3.00;;
17091;SDS011;8661;45.700;4.880;2022-08-05T09:35:56;5.88;;;3.03;;
17091;SDS011;8661;45.700;4.880;2022-08-05T09:38:24;3.67;;;3.28;;
17091;SDS011;8661;45.700;4.880;2022-08-05T09:40:52;3.25;;;2.85;;
17091;SDS011;8661;45.700;4.880;2022-08-05T09:43:27;7.60;;;3.45;;
17091;SDS011;8661;45.700;4.880;2022-08-05T09:45:55;7.03;;;2.92;;
17091;SDS011;8661;45.700;4.880;2022-08-05T09:48:24;6.63;;;3.25;;
17091;SDS011;8661;45.700;4.880;2022-08-05T09:50:54;5.45;;;2.78;;
17091;SDS011;8661;45.700;4.880;2022-08-05T09:53:23;3.90;;;2.80;;
17091;SDS011;8661;45.700;4.880;2022-08-05T09:55:51;4.88;;;3.28;;
17091;SDS011;8661;45.700;4.880;2022-08-05T09:58:19;10.07;;;3.03;;
17091;SDS011;8661;45.700;4.880;2022-08-05T10:00:53;4.55;;;3.05;;
17091;SDS011;8661;45.700;4.880;2022-08-05T10:03:23;6.38;;;2.78;;
17091;SDS011;8661;45.700;4.880;2022-08-05T10:06:04;4.45;;;2.88;;
17091;SDS011;8661;45.700;4.880;2022-08-05T10:08:32;3.58;;;2.72;;
17091;SDS011;8661;45.700;4.880;2022-08-05T10:11:01;8.45;;;3.15;;
17091;SDS011;8661;45.700;4.880;2022-08-05T10:13:30;2.58;;;2.35;;
17091;SDS011;8661;45.700;4.880;2022-08-05T10:16:00;5.47;;;2.55;;
17091;SDS011;8661;45.700;4.880;2022-08-05T10:18:28;4.05;;;2.28;;
17091;SDS011;8661;45.700;4.880;2022-08-05T10:20:58;3.10;;;2.50;;
17091;SDS011;8661;45.700;4.880;2022-08-05T10:23:27;7.97;;;2.45;;
17091;SDS011;8661;45.700;4.880;2022-08-05T10:25:57;2.45;;;2.25;;
17091;SDS011;8661;45.700;4.880;2022-08-05T10:28:25;3.13;;;2.33;;
17091;SDS011;8661;45.700;4.880;2022-08-05T10:30:53;5.07;;;2.67;;
17091;SDS011;8661;45.700;4.880;2022-08-05T10:33:22;5.82;;;2.63;;
17091;SDS011;8661;45.700;4.880;2022-08-05T10:35:52;3.75;;;2.60;;
17091;SDS011;8661;45.700;4.880;2022-08-05T10:38:21;5.03;;;2.50;;
17091;SDS011;8661;45.700;4.880;2022-08-05T10:40:52;3.05;;;2.38;;
17091;SDS011;8661;45.700;4.880;2022-08-05T10:43:29;5.07;;;2.42;;
17091;SDS011;8661;45.700;4.880;2022-08-05T10:46:01;4.03;;;2.70;;
17091;SDS011;8661;45.700;4.880;2022-08-05T10:48:30;3.35;;;2.50;;
17091;SDS011;8661;45.700;4.880;2022-08-05T10:51:02;4.32;;;3.03;;
17091;SDS011;8661;45.700;4.880;2022-08-05T10:53:42;4.57;;;2.47;;
17091;SDS011;8661;45.700;4.880;2022-08-05T10:56:17;2.85;;;2.65;;
17091;SDS011;8661;45.700;4.880;2022-08-05T10:58:48;2.80;;;2.60;;
17091;SDS011;8661;45.700;4.880;2022-08-05T11:01:29;6.88;;;2.90;;
17091;SDS011;8661;45.700;4.880;2022-08-05T11:04:01;5.72;;;2.70;;
17091;SDS011;8661;45.700;4.880;2022-08-05T11:06:34;3.88;;;2.28;;
17091;SDS011;8661;45.700;4.880;2022-08-05T11:09:22;5.85;;;2.70;;
17091;SDS011;8661;45.700;4.880;2022-08-05T11:11:51;3.80;;;2.50;;
17091;SDS011;8661;45.700;4.880;2022-08-05T11:14:22;2.75;;;2.55;;
17091;SDS011;8661;45.700;4.880;2022-08-05T11:19:58;3.53;;;2.40;;
17091;SDS011;8661;45.700;4.880;2022-08-05T11:22:40;5.38;;;2.63;;
17091;SDS011;8661;45.700;4.880;2022-08-05T11:33:52;3.35;;;2.72;;
17091;SDS011;8661;45.700;4.880;2022-08-05T11:36:39;3.45;;;2.88;;
17091;SDS011;8661;45.700;4.880;2022-08-05T11:39:16;2.90;;;2.70;;
17091;SDS011;8661;45.700;4.880;2022-08-05T11:41:57;3.03;;;2.75;;
17091;SDS011;8661;45.700;4.880;2022-08-05T11:44:26;3.47;;;2.50;;
17091;SDS011;8661;45.700;4.880;2022-08-05T11:47:03;4.57;;;2.90;;
17091;SDS011;8661;45.700;4.880;2022-08-05T11:49:30;4.55;;;2.97;;
17091;SDS011;8661;45.700;4.880;2022-08-05T11:51:57;3.70;;;2.85;;
17091;SDS011;8661;45.700;4.880;2022-08-05T11:54:27;3.10;;;2.80;;
17091;SDS011;8661;45.700;4.880;2022-08-05T11:56:56;3.45;;;3.08;;
17091;SDS011;8661;45.700;4.880;2022-08-05T11:59:25;4.68;;;2.90;;
17091;SDS011;8661;45.700;4.880;2022-08-05T12:01:57;5.30;;;3.10;;
17091;SDS011;8661;45.700;4.880;2022-08-05T12:04:26;6.47;;;3.00;;
17091;SDS011;8661;45.700;4.880;2022-08-05T12:06:54;5.13;;;3.33;;
17091;SDS011;8661;45.700;4.880;2022-08-05T12:09:26;4.78;;;3.53;;
17091;SDS011;8661;45.700;4.880;2022-08-05T12:11:55;3.95;;;3.00;;
17091;SDS011;8661;45.700;4.880;2022-08-05T12:14:22;5.00;;;3.08;;
17091;SDS011;8661;45.700;4.880;2022-08-05T12:16:49;5.90;;;3.30;;
17091;SDS011;8661;45.700;4.880;2022-08-05T12:19:16;4.55;;;3.17;;
17091;SDS011;8661;45.700;4.880;2022-08-05T12:21:46;3.97;;;3.17;;
17091;SDS011;8661;45.700;4.880;2022-08-05T12:24:15;7.63;;;2.90;;
17091;SDS011;8661;45.700;4.880;2022-08-05T12:26:45;3.40;;;3.10;;
17091;SDS011;8661;45.700;4.880;2022-08-05T12:29:14;4.10;;;2.97;;
17091;SDS011;8661;45.700;4.880;2022-08-05T12:31:45;8.15;;;3.33;;
17091;SDS011;8661;45.700;4.880;2022-08-05T12:34:13;3.50;;;3.15;;
17091;SDS011;8661;45.700;4.880;2022-08-05T12:36:41;8.18;;;2.97;;
17091;SDS011;8661;45.700;4.880;2022-08-05T12:39:09;6.78;;;3.00;;
17091;SDS011;8661;45.700;4.880;2022-08-05T12:41:37;5.35;;;3.05;;
17091;SDS011;8661;45.700;4.880;2022-08-05T12:44:07;5.45;;;2.50;;
17091;SDS011;8661;45.700;4.880;2022-08-05T12:46:36;5.20;;;2.83;;
17091;SDS011;8661;45.700;4.880;2022-08-05T12:49:05;5.88;;;3.28;;
17091;SDS011;8661;45.700;4.880;2022-08-05T12:51:42;5.20;;;3.40;;
17091;SDS011;8661;45.700;4.880;2022-08-05T12:54:16;6.43;;;3.40;;
17091;SDS011;8661;45.700;4.880;2022-08-05T12:56:48;4.13;;;3.28;;
17091;SDS011;8661;45.700;4.880;2022-08-05T12:59:18;4.32;;;3.22;;
17091;SDS011;8661;45.700;4.880;2022-08-05T13:01:54;3.42;;;2.95;;
17091;SDS011;8661;45.700;4.880;2022-08-05T13:04:24;9.32;;;3.72;;
17091;SDS011;8661;45.700;4.880;2022-08-05T13:06:54;3.50;;;3.20;;
17091;SDS011;8661;45.700;4.880;2022-08-05T13:09:22;3.60;;;3.20;;
17091;SDS011;8661;45.700;4.880;2022-08-05T13:11:51;3.15;;;2.72;;
17091;SDS011;8661;45.700;4.880;2022-08-05T13:14:28;8.70;;;3.22;;
17091;SDS011;8661;45.700;4.880;2022-08-05T13:17:00;6.50;;;3.05;;
17091;SDS011;8661;45.700;4.880;2022-08-05T13:19:27;8.23;;;2.92;;
17091;SDS011;8661;45.700;4.880;2022-08-05T13:21:54;5.95;;;2.80;;
17091;SDS011;8661;45.700;4.880;2022-08-05T13:24:22;6.57;;;3.10;;
17091;SDS011;8661;45.700;4.880;2022-08-05T13:26:49;6.70;;;3.00;;
17091;SDS011;8661;45.700;4.880;2022-08-05T13:29:17;5.63;;;3.47;;
17091;SDS011;8661;45.700;4.880;2022-08-05T13:31:46;4.53;;;2.83;;
17091;SDS011;8661;45.700;4.880;2022-08-05T13:34:13;5.38;;;2.90;;
17091;SDS011;8661;45.700;4.880;2022-08-05T13:36:40;5.10;;;3.20;;
17091;SDS011;8661;45.700;4.880;2022-08-05T13:39:08;4.47;;;2.80;;
17091;SDS011;8661;45.700;4.880;2022-08-05T13:41:37;11.73;;;3.45;;
17091;SDS011;8661;45.700;4.880;2022-08-05T13:44:04;4.97;;;3.30;;
17091;SDS011;8661;45.700;4.880;2022-08-05T13:46:31;5.25;;;3.00;;
17091;SDS011;8661;45.700;4.880;2022-08-05T13:49:00;4.82;;;2.92;;
17091;SDS011;8661;45.700;4.880;2022-08-05T13:51:28;6.57;;;3.35;;
17091;SDS011;8661;45.700;4.880;2022-08-05T13:53:57;4.78;;;3.10;;
17091;SDS011;8661;45.700;4.880;2022-08-05T13:56:24;3.83;;;3.10;;
17091;SDS011;8661;45.700;4.880;2022-08-05T13:58:51;7.50;;;3.65;;
17091;SDS011;8661;45.700;4.880;2022-08-05T14:01:18;6.93;;;2.95;;
17091;SDS011;8661;45.700;4.880;2022-08-05T14:03:45;8.38;;;3.33;;
17091;SDS011;8661;45.700;4.880;2022-08-05T14:06:35;4.32;;;3.25;;
17091;SDS011;8661;45.700;4.880;2022-08-05T14:09:01;3.78;;;3.33;;
17091;SDS011;8661;45.700;4.880;2022-08-05T14:11:29;4.15;;;3.40;;
17091;SDS011;8661;45.700;4.880;2022-08-05T14:13:56;5.18;;;3.47;;
17091;SDS011;8661;45.700;4.880;2022-08-05T14:16:25;3.67;;;3.10;;
17091;SDS011;8661;45.700;4.880;2022-08-05T14:18:52;4.75;;;3.22;;
17091;SDS011;8661;45.700;4.880;2022-08-05T14:21:19;7.68;;;3.13;;
17091;SDS011;8661;45.700;4.880;2022-08-05T14:23:47;5.30;;;3.28;;
17091;SDS011;8661;45.700;4.880;2022-08-05T14:26:14;5.63;;;3.53;;
17091;SDS011;8661;45.700;4.880;2022-08-05T14:28:41;4.45;;;3.38;;
17091;SDS011;8661;45.700;4.880;2022-08-05T14:31:08;5.10;;;3.40;;
17091;SDS011;8661;45.700;4.880;2022-08-05T14:33:35;8.35;;;3.65;;
17091;SDS011;8661;45.700;4.880;2022-08-05T14:36:02;9.43;;;3.30;;
17091;SDS011;8661;45.700;4.880;2022-08-05T14:38:30;3.85;;;3.00;;
17091;SDS011;8661;45.700;4.880;2022-08-05T14:40:58;7.00;;;2.97;;
17091;SDS011;8661;45.700;4.880;2022-08-05T14:43:26;5.75;;;3.13;;
17091;SDS011;8661;45.700;4.880;2022-08-05T14:45:53;5.03;;;3.47;;
17091;SDS011;8661;45.700;4.880;2022-08-05T14:48:20;4.03;;;3.08;;
17091;SDS011;8661;45.700;4.880;2022-08-05T14:50:47;6.93;;;3.20;;
17091;SDS011;8661;45.700;4.880;2022-08-05T14:53:13;3.28;;;2.55;;
17091;SDS011;8661;45.700;4.880;2022-08-05T14:55:40;5.28;;;3.33;;
17091;SDS011;8661;45.700;4.880;2022-08-05T14:58:09;4.95;;;3.65;;
17091;SDS011;8661;45.700;4.880;2022-08-05T15:00:36;3.58;;;2.97;;
17091;SDS011;8661;45.700;4.880;2022-08-05T15:03:03;6.90;;;3.28;;
17091;SDS011;8661;45.700;4.880;2022-08-05T15:05:31;5.00;;;3.30;;
17091;SDS011;8661;45.700;4.880;2022-08-05T15:07:58;5.30;;;3.20;;
17091;SDS011;8661;45.700;4.880;2022-08-05T15:10:25;5.38;;;2.83;;
17091;SDS011;8661;45.700;4.880;2022-08-05T15:12:52;6.70;;;3.13;;
17091;SDS011;8661;45.700;4.880;2022-08-05T15:15:21;7.03;;;2.97;;
17091;SDS011;8661;45.700;4.880;2022-08-05T15:17:48;7.45;;;3.45;;
17091;SDS011;8661;45.700;4.880;2022-08-05T15:20:15;7.38;;;3.03;;
17091;SDS011;8661;45.700;4.880;2022-08-05T15:22:42;8.82;;;3.15;;
17091;SDS011;8661;45.700;4.880;2022-08-05T15:25:09;52.95;;;4.47;;
17091;SDS011;8661;45.700;4.880;2022-08-05T15:27:36;34.42;;;4.53;;
17091;SDS011;8661;45.700;4.880;2022-08-05T15:30:04;42.70;;;5.05;;
17091;SDS011;8661;45.700;4.880;2022-08-05T15:32:33;17.40;;;3.92;;